createdAt,value
2022-08-29T00:01:28.816Z,99087.16
2022-08-29T00:03:58.033Z,99090.38
2022-08-29T00:06:26.416Z,99095.59
2022-08-29T00:08:54.130Z,99098.38
2022-08-29T00:11:21.507Z,99096.72
2022-08-29T00:13:49.034Z,99090.66
2022-08-29T00:16:16.405Z,99092.66
2022-08-29T00:18:43.521Z,99096.22
2022-08-29T00:21:10.796Z,99093.03
2022-08-29T00:23:37.891Z,99091.84
2022-08-29T00:26:06.049Z,99089.44
2022-08-29T00:28:33.673Z,99091.81
2022-08-29T00:31:01.945Z,99076.56
2022-08-29T00:33:29.499Z,99083.00
2022-08-29T00:35:56.936Z,99088.16
2022-08-29T00:38:27.628Z,99075.38
2022-08-29T00:40:56.750Z,99094.94
2022-08-29T00:43:27.958Z,99088.16
2022-08-29T00:46:01.291Z,99086.91
2022-08-29T00:48:29.350Z,99098.88
2022-08-29T00:51:01.667Z,99097.31
2022-08-29T00:53:54.345Z,99097.28
2022-08-29T00:56:22.252Z,99099.72
2022-08-29T00:58:57.625Z,99095.28
2022-08-29T01:01:25.669Z,99082.50
2022-08-29T01:03:54.060Z,99091.28
2022-08-29T01:06:22.460Z,99078.47
2022-08-29T01:08:57.432Z,99092.84
2022-08-29T01:11:46.802Z,99090.03
2022-08-29T01:14:15.190Z,99078.38
2022-08-29T01:16:42.705Z,99078.34
2022-08-29T01:19:31.644Z,99076.31
2022-08-29T01:22:17.169Z,99089.16
2022-08-29T01:24:51.107Z,99082.28
2022-08-29T01:27:28.933Z,99086.28
2022-08-29T01:29:56.783Z,99085.47
2022-08-29T01:32:25.421Z,99083.00
2022-08-29T01:34:53.650Z,99083.38
2022-08-29T01:37:20.908Z,99079.81
2022-08-29T01:39:48.368Z,99080.97
2022-08-29T01:42:21.965Z,99077.38
2022-08-29T01:44:58.496Z,99078.13
2022-08-29T01:47:30.114Z,99075.34
2022-08-29T01:49:57.757Z,99066.13
2022-08-29T01:52:25.082Z,99065.31
2022-08-29T01:54:52.397Z,99070.88
2022-08-29T01:57:20.087Z,99064.03
2022-08-29T01:59:47.678Z,99064.47
2022-08-29T02:02:23.599Z,99075.34
2022-08-29T02:04:51.029Z,99065.34
2022-08-29T02:07:21.151Z,99071.78
2022-08-29T02:09:48.652Z,99078.13
2022-08-29T02:12:16.654Z,99082.13
2022-08-29T02:14:45.146Z,99082.03
2022-08-29T02:17:12.596Z,99071.66
2022-08-29T02:19:40.207Z,99082.44
2022-08-29T02:22:09.704Z,99080.88
2022-08-29T02:24:36.962Z,99085.63
2022-08-29T02:27:04.479Z,99082.81
2022-08-29T02:29:37.321Z,99078.00
2022-08-29T02:32:08.541Z,99092.31
2022-08-29T02:34:36.870Z,99097.91
2022-08-29T02:37:06.029Z,99094.72
2022-08-29T02:39:34.448Z,99099.88
2022-08-29T02:42:02.393Z,99096.72
2022-08-29T02:44:29.843Z,99087.50
2022-08-29T02:46:57.338Z,99094.59
2022-08-29T02:49:24.445Z,99096.56
2022-08-29T02:51:51.717Z,99101.69
2022-08-29T02:54:19.020Z,99103.72
2022-08-29T02:56:46.393Z,99109.59
2022-08-29T02:59:14.392Z,99098.81
2022-08-29T03:01:41.629Z,99103.50
2022-08-29T03:04:08.904Z,99105.84
2022-08-29T03:06:36.137Z,99111.78
2022-08-29T03:09:03.437Z,99114.13
2022-08-29T03:11:31.226Z,99114.44
2022-08-29T03:13:58.261Z,99117.25
2022-08-29T03:16:26.501Z,99121.22
2022-08-29T03:18:54.543Z,99130.88
2022-08-29T03:21:25.008Z,99133.28
2022-08-29T03:23:53.023Z,99130.09
2022-08-29T03:26:20.765Z,99135.69
2022-08-29T03:28:48.396Z,99130.16
2022-08-29T03:31:16.508Z,99119.69
2022-08-29T03:33:43.864Z,99130.47
2022-08-29T03:36:14.146Z,99138.00
2022-08-29T03:38:43.780Z,99128.25
2022-08-29T03:41:11.617Z,99141.81
2022-08-29T03:43:39.035Z,99144.16
2022-08-29T03:46:06.825Z,99140.91
2022-08-29T03:48:34.073Z,99153.34
2022-08-29T03:51:01.579Z,99147.28
2022-08-29T03:53:30.771Z,99151.69
2022-08-29T03:55:58.387Z,99160.09
2022-08-29T03:58:25.902Z,99152.53
2022-08-29T04:00:53.157Z,99164.56
2022-08-29T04:03:21.956Z,99170.13
2022-08-29T04:05:55.252Z,99166.97
2022-08-29T04:08:23.124Z,99162.56
2022-08-29T04:10:51.292Z,99167.47
2022-08-29T04:13:18.938Z,99172.31
2022-08-29T04:15:46.430Z,99166.28
2022-08-29T04:18:13.633Z,99175.94
2022-08-29T04:20:45.619Z,99177.31
2022-08-29T04:23:14.236Z,99165.25
2022-08-29T04:25:43.757Z,99182.09
2022-08-29T04:28:14.309Z,99158.38
2022-08-29T04:30:51.505Z,99175.69
2022-08-29T04:33:22.950Z,99180.56
2022-08-29T04:35:52.334Z,99183.00
2022-08-29T04:38:20.393Z,99178.25
2022-08-29T04:40:47.909Z,99175.06
2022-08-29T04:43:15.617Z,99178.81
2022-08-29T04:45:42.779Z,99184.84
2022-08-29T04:48:11.149Z,99177.66
2022-08-29T04:50:39.182Z,99189.31
2022-08-29T04:53:06.399Z,99190.56
2022-08-29T04:55:33.536Z,99183.81
2022-08-29T04:58:01.538Z,99187.00
2022-08-29T05:00:31.351Z,99191.50
2022-08-29T05:02:59.633Z,99198.78
2022-08-29T05:05:27.857Z,99188.13
2022-08-29T05:07:55.246Z,99198.94
2022-08-29T05:10:23.054Z,99185.81
2022-08-29T05:12:50.306Z,99195.91
2022-08-29T05:15:18.054Z,99183.56
2022-08-29T05:17:45.583Z,99204.00
2022-08-29T05:20:13.049Z,99197.69
2022-08-29T05:22:42.405Z,99190.56
2022-08-29T05:25:17.270Z,99202.16
2022-08-29T05:27:46.930Z,99183.34
2022-08-29T05:30:16.479Z,99197.03
2022-08-29T05:33:01.422Z,99205.50
2022-08-29T05:35:28.638Z,99195.25
2022-08-29T05:37:55.898Z,99196.16
2022-08-29T05:40:23.109Z,99193.00
2022-08-29T05:42:50.550Z,99195.81
2022-08-29T05:45:17.903Z,99192.25
2022-08-29T05:47:45.320Z,99186.28
2022-08-29T05:50:17.091Z,99187.13
2022-08-29T05:52:45.439Z,99189.16
2022-08-29T05:55:12.607Z,99200.81
2022-08-29T05:57:40.167Z,99188.06
2022-08-29T06:00:10.757Z,99178.47
2022-08-29T06:02:40.998Z,99191.31
2022-08-29T06:05:08.907Z,99197.34
2022-08-29T06:07:38.058Z,99197.78
2022-08-29T06:10:09.040Z,99185.78
2022-08-29T06:12:37.658Z,99188.94
2022-08-29T06:15:05.333Z,99198.53
2022-08-29T06:17:34.111Z,99199.72
2022-08-29T06:20:01.442Z,99191.22
2022-08-29T06:22:31.137Z,99180.78
2022-08-29T06:24:58.804Z,99205.59
2022-08-29T06:27:26.064Z,99193.94
2022-08-29T06:29:53.251Z,99195.47
2022-08-29T06:32:21.198Z,99203.06
2022-08-29T06:34:48.443Z,99194.16
2022-08-29T06:37:16.207Z,99186.44
2022-08-29T06:39:43.612Z,99190.78
2022-08-29T06:42:10.726Z,99197.56
2022-08-29T06:44:44.403Z,99185.09
2022-08-29T06:47:12.181Z,99205.47
2022-08-29T06:49:39.550Z,99192.53
2022-08-29T06:52:06.988Z,99195.34
2022-08-29T06:54:34.378Z,99197.72
2022-08-29T06:57:01.692Z,99202.41
2022-08-29T06:59:29.148Z,99192.69
2022-08-29T07:01:56.830Z,99201.34
2022-08-29T07:04:26.438Z,99205.69
2022-08-29T07:06:54.673Z,99206.00
2022-08-29T07:09:22.101Z,99201.38
2022-08-29T07:11:49.558Z,99196.44
2022-08-29T07:14:17.319Z,99198.63
2022-08-29T07:16:44.755Z,99188.44
2022-08-29T07:19:11.909Z,99198.72
2022-08-29T07:21:39.941Z,99202.41
2022-08-29T07:24:08.609Z,99194.19
2022-08-29T07:26:42.564Z,99187.34
2022-08-29T07:29:20.705Z,99201.88
2022-08-29T07:31:49.014Z,99198.00
2022-08-29T07:34:20.713Z,99205.44
2022-08-29T07:36:49.216Z,99201.06
2022-08-29T07:39:19.482Z,99195.91
2022-08-29T07:41:46.900Z,99197.19
2022-08-29T07:44:16.051Z,99195.19
2022-08-29T07:46:44.178Z,99197.19
2022-08-29T07:49:12.569Z,99199.66
2022-08-29T07:51:44.171Z,99190.75
2022-08-29T07:54:13.514Z,99198.56
2022-08-29T07:56:41.690Z,99188.66
2022-08-29T07:59:09.548Z,99192.22
2022-08-29T08:01:37.826Z,99196.66
2022-08-29T08:04:05.603Z,99195.06
2022-08-29T08:06:35.871Z,99202.22
2022-08-29T08:09:05.380Z,99195.63
2022-08-29T08:11:32.809Z,99199.25
2022-08-29T08:14:00.167Z,99192.03
2022-08-29T08:16:28.421Z,99190.09
2022-08-29T08:18:56.580Z,99212.44
2022-08-29T08:21:25.685Z,99202.75
2022-08-29T08:23:53.910Z,99193.47
2022-08-29T08:26:21.364Z,99197.81
2022-08-29T08:28:48.895Z,99184.59
2022-08-29T08:31:17.948Z,99200.25
2022-08-29T08:33:46.125Z,99200.09
2022-08-29T08:36:26.268Z,99193.56
2022-08-29T08:38:55.161Z,99201.28
2022-08-29T08:41:27.307Z,99196.56
2022-08-29T08:44:14.338Z,99186.34
2022-08-29T08:46:45.110Z,99182.91
2022-08-29T08:49:36.854Z,99189.00
2022-08-29T08:52:14.183Z,99184.41
2022-08-29T08:54:50.655Z,99191.19
2022-08-29T08:57:20.153Z,99185.59
2022-08-29T08:59:53.487Z,99178.66
2022-08-29T09:02:35.520Z,99190.34
2022-08-29T09:05:31.150Z,99188.75
2022-08-29T09:08:17.226Z,99192.88
2022-08-29T09:10:49.445Z,99194.13
2022-08-29T09:13:58.401Z,99194.16
2022-08-29T09:16:31.747Z,99186.34
2022-08-29T09:19:04.963Z,99178.78
2022-08-29T09:21:42.927Z,99192.06
2022-08-29T09:24:17.619Z,99189.69
2022-08-29T09:26:44.786Z,99180.63
2022-08-29T09:29:14.005Z,99185.38
2022-08-29T09:31:41.818Z,99183.00
2022-08-29T09:34:13.143Z,99182.41
2022-08-29T09:36:53.158Z,99179.56
2022-08-29T09:39:28.675Z,99191.38
2022-08-29T09:42:13.967Z,99173.97
2022-08-29T09:44:51.498Z,99180.94
2022-08-29T09:47:30.612Z,99175.94
2022-08-29T09:50:03.024Z,99184.44
2022-08-29T09:52:31.119Z,99187.69
2022-08-29T09:55:27.904Z,99172.88
2022-08-29T09:58:10.419Z,99169.56
2022-08-29T10:00:45.007Z,99178.00
2022-08-29T10:03:22.872Z,99171.84
2022-08-29T10:06:07.652Z,99175.53
2022-08-29T10:08:39.556Z,99174.69
2022-08-29T10:11:21.179Z,99174.41
2022-08-29T10:13:59.186Z,99167.78
2022-08-29T10:16:41.699Z,99185.84
2022-08-29T10:19:34.131Z,99173.84
2022-08-29T10:22:02.286Z,99172.31
2022-08-29T10:24:32.011Z,99168.53
2022-08-29T10:27:10.890Z,99169.84
2022-08-29T10:30:00.111Z,99163.34
2022-08-29T10:32:35.636Z,99172.34
2022-08-29T10:35:30.958Z,99167.25
2022-08-29T10:38:05.086Z,99154.19
2022-08-29T10:40:52.707Z,99167.22
2022-08-29T10:43:35.553Z,99174.06
2022-08-29T10:46:12.379Z,99161.53
2022-08-29T10:48:46.349Z,99170.34
2022-08-29T10:51:20.063Z,99157.50
2022-08-29T10:54:03.440Z,99130.25
2022-08-29T10:56:43.078Z,99154.81
2022-08-29T10:59:25.258Z,99158.31
2022-08-29T11:01:56.061Z,99153.22
2022-08-29T11:04:43.719Z,99149.72
2022-08-29T11:07:23.032Z,99156.28
2022-08-29T11:09:55.630Z,99164.22
2022-08-29T11:12:47.108Z,99157.31
2022-08-29T11:15:28.155Z,99152.75
2022-08-29T11:18:26.475Z,99143.63
2022-08-29T11:21:00.509Z,99147.59
2022-08-29T11:23:46.855Z,99144.91
2022-08-29T11:26:23.521Z,99139.66
2022-08-29T11:29:02.086Z,99132.53
2022-08-29T11:31:56.919Z,99132.09
2022-08-29T11:34:24.216Z,99137.97
2022-08-29T11:37:28.072Z,99137.97
2022-08-29T11:40:07.688Z,99133.09
2022-08-29T11:42:55.451Z,99120.91
2022-08-29T11:45:36.949Z,99125.34
2022-08-29T11:48:32.972Z,99122.50
2022-08-29T11:51:31.710Z,99112.00
2022-08-29T11:54:24.944Z,99114.53
2022-08-29T11:57:03.059Z,99118.94
2022-08-29T11:59:51.480Z,99113.19
2022-08-29T12:02:28.257Z,99104.88
2022-08-29T12:04:59.541Z,99103.53
2022-08-29T12:07:49.108Z,99100.22
2022-08-29T12:10:23.753Z,99094.53
2022-08-29T12:13:01.218Z,99092.00
2022-08-29T12:15:34.779Z,99094.06
2022-08-29T12:18:22.519Z,99084.88
2022-08-29T12:20:57.137Z,99088.19
2022-08-29T12:23:36.389Z,99090.84
2022-08-29T12:26:22.095Z,99081.75
2022-08-29T12:29:01.934Z,99067.03
2022-08-29T12:32:18.154Z,99079.38
2022-08-29T12:35:11.758Z,99075.81
2022-08-29T12:37:55.194Z,99071.19
2022-08-29T12:41:04.630Z,99045.31
2022-08-29T12:43:42.755Z,99060.03
2022-08-29T12:46:25.775Z,99051.19
2022-08-29T12:49:03.544Z,99059.94
2022-08-29T12:51:33.221Z,99051.94
2022-08-29T12:54:00.673Z,99041.31
2022-08-29T12:56:28.302Z,99041.31
2022-08-29T12:59:00.321Z,99035.41
2022-08-29T13:01:33.776Z,99036.88
2022-08-29T13:04:03.519Z,99037.56
2022-08-29T13:06:33.574Z,99029.97
2022-08-29T13:09:01.637Z,99029.00
2022-08-29T13:11:32.067Z,99033.22
2022-08-29T13:14:12.265Z,99035.16
2022-08-29T13:16:41.450Z,99033.75
2022-08-29T13:19:20.595Z,99034.50
2022-08-29T13:21:48.264Z,99028.91
2022-08-29T13:24:22.418Z,99021.34
2022-08-29T13:27:04.841Z,99031.06
2022-08-29T13:29:38.868Z,99028.66
2022-08-29T13:32:18.883Z,99020.09
2022-08-29T13:35:16.024Z,99020.03
2022-08-29T13:37:46.741Z,99023.19
2022-08-29T13:40:57.455Z,99015.09
2022-08-29T13:43:45.966Z,99000.34
2022-08-29T13:46:15.005Z,99014.69
2022-08-29T13:48:43.642Z,98997.97
2022-08-29T13:51:11.706Z,99004.41
2022-08-29T13:53:39.780Z,98999.22
2022-08-29T13:56:32.515Z,98997.91
2022-08-29T13:59:00.910Z,98983.81
2022-08-29T14:01:29.836Z,98996.16
2022-08-29T14:04:01.253Z,98989.81
2022-08-29T14:06:34.215Z,98986.81
2022-08-29T14:09:02.225Z,98992.59
2022-08-29T14:11:29.764Z,98989.50
2022-08-29T14:13:57.522Z,98980.41
2022-08-29T14:16:25.664Z,98977.28
2022-08-29T14:18:53.833Z,98973.84
2022-08-29T14:21:21.092Z,98985.16
2022-08-29T14:23:48.977Z,98972.50
2022-08-29T14:26:17.610Z,98973.53
2022-08-29T14:28:48.470Z,98962.63
2022-08-29T14:31:16.784Z,98975.38
2022-08-29T14:33:45.049Z,98976.97
2022-08-29T14:36:12.796Z,98979.16
2022-08-29T14:38:40.033Z,98967.28
2022-08-29T14:41:07.777Z,98970.78
2022-08-29T14:43:39.610Z,98965.88
2022-08-29T14:46:07.963Z,98968.72
2022-08-29T14:48:35.734Z,98966.50
2022-08-29T14:51:04.074Z,98964.97
2022-08-29T14:53:33.986Z,98958.84
2022-08-29T14:56:05.524Z,98968.56
2022-08-29T14:58:32.979Z,98962.59
2022-08-29T15:01:00.949Z,98956.88
2022-08-29T15:03:28.286Z,98964.97
2022-08-29T15:05:55.571Z,98953.53
2022-08-29T15:08:23.129Z,98956.97
2022-08-29T15:10:50.696Z,98959.66
2022-08-29T15:13:18.348Z,98954.41
2022-08-29T15:15:45.949Z,98955.25
2022-08-29T15:18:30.519Z,98950.56
2022-08-29T15:21:02.215Z,98953.41
2022-08-29T15:23:29.782Z,98955.69
2022-08-29T15:25:57.215Z,98951.47
2022-08-29T15:28:24.589Z,98945.66
2022-08-29T15:30:52.436Z,98956.44
2022-08-29T15:33:19.891Z,98955.19
2022-08-29T15:35:47.451Z,98961.53
2022-08-29T15:38:14.977Z,98948.72
2022-08-29T15:40:42.863Z,98958.06
2022-08-29T15:43:10.801Z,98955.16
2022-08-29T15:45:39.191Z,98955.97
2022-08-29T15:48:11.605Z,98943.44
2022-08-29T15:50:41.623Z,98963.69
2022-08-29T15:53:09.553Z,98934.16
2022-08-29T15:55:39.135Z,98954.88
2022-08-29T15:58:09.782Z,98947.28
2022-08-29T16:00:37.086Z,98951.84
2022-08-29T16:03:05.249Z,98955.63
2022-08-29T16:05:33.767Z,98945.47
2022-08-29T16:08:02.090Z,98956.59
2022-08-29T16:10:30.084Z,98957.69
2022-08-29T16:12:58.516Z,98959.69
2022-08-29T16:15:27.821Z,98957.25
2022-08-29T16:17:55.223Z,98956.13
2022-08-29T16:20:22.726Z,98962.59
2022-08-29T16:22:50.133Z,98953.25
2022-08-29T16:25:17.980Z,98957.94
2022-08-29T16:27:45.211Z,98958.66
2022-08-29T16:30:13.373Z,98961.94
2022-08-29T16:32:41.021Z,98961.41
2022-08-29T16:35:10.443Z,98947.94
2022-08-29T16:37:37.894Z,98954.00
2022-08-29T16:40:07.213Z,98953.91
2022-08-29T16:42:37.780Z,98961.09
2022-08-29T16:45:09.934Z,98956.22
2022-08-29T16:47:37.775Z,98961.19
2022-08-29T16:50:07.404Z,98916.84
2022-08-29T16:52:34.887Z,98966.41
2022-08-29T16:55:04.670Z,98964.28
2022-08-29T16:57:32.322Z,98964.63
2022-08-29T16:59:59.585Z,98976.88
2022-08-29T17:02:26.876Z,98971.53
2022-08-29T17:04:54.291Z,98967.66
2022-08-29T17:07:21.839Z,98974.00
2022-08-29T17:09:48.971Z,98975.75
2022-08-29T17:12:16.346Z,98985.16
2022-08-29T17:14:43.404Z,98984.56
2022-08-29T17:17:10.756Z,98986.09
2022-08-29T17:19:39.037Z,98980.66
2022-08-29T17:22:06.382Z,98994.13
2022-08-29T17:24:33.578Z,98988.31
2022-08-29T17:27:01.715Z,99010.63
2022-08-29T17:29:29.031Z,98995.88
2022-08-29T17:31:56.290Z,99009.78
2022-08-29T17:34:23.934Z,99016.91
2022-08-29T17:36:51.400Z,99019.16
2022-08-29T17:39:20.072Z,99018.16
2022-08-29T17:41:52.459Z,99026.66
2022-08-29T17:44:20.131Z,99019.50
2022-08-29T17:46:47.427Z,99025.97
2022-08-29T17:49:14.838Z,99029.78
2022-08-29T17:51:42.646Z,99045.78
2022-08-29T17:54:14.685Z,99057.19
2022-08-29T17:56:51.433Z,99055.53
2022-08-29T17:59:20.550Z,99060.47
2022-08-29T18:01:48.459Z,99061.53
2022-08-29T18:04:17.039Z,99068.53
2022-08-29T18:06:45.001Z,99062.25
2022-08-29T18:09:12.301Z,99054.47
2022-08-29T18:11:42.171Z,99052.97
2022-08-29T18:14:10.199Z,99057.81
2022-08-29T18:16:43.568Z,99053.84
2022-08-29T18:19:13.571Z,99070.38
2022-08-29T18:21:43.235Z,99071.06
2022-08-29T18:28:41.632Z,99076.53
2022-08-29T18:31:10.209Z,99085.16
2022-08-29T18:33:59.458Z,99087.00
2022-08-29T18:36:27.284Z,99090.50
2022-08-29T18:38:54.570Z,99090.56
2022-08-29T18:41:21.673Z,99086.22
2022-08-29T18:43:49.713Z,99098.13
2022-08-29T18:46:17.137Z,99089.75
2022-08-29T18:48:44.939Z,99096.75
2022-08-29T18:51:12.345Z,99106.28
2022-08-29T18:53:39.977Z,99093.84
2022-08-29T18:56:07.697Z,99096.22
2022-08-29T18:58:36.173Z,99089.91
2022-08-29T19:01:12.066Z,99104.84
2022-08-29T19:03:40.674Z,99104.97
2022-08-29T19:06:08.156Z,99103.13
2022-08-29T19:08:35.363Z,99098.47
2022-08-29T19:11:03.847Z,99093.00
2022-08-29T19:13:31.373Z,99094.78
2022-08-29T19:16:00.735Z,99112.03
2022-08-29T19:18:27.947Z,99106.94
2022-08-29T19:21:07.649Z,99116.63
2022-08-29T19:23:52.684Z,99109.16
2022-08-29T19:26:30.792Z,99107.19
2022-08-29T19:29:01.688Z,99110.03
2022-08-29T19:31:33.052Z,99109.81
2022-08-29T19:34:00.879Z,99107.44
2022-08-29T19:36:28.078Z,99112.31
2022-08-29T19:38:56.554Z,99082.28
2022-08-29T19:41:25.120Z,99105.94
2022-08-29T19:43:54.077Z,99114.09
2022-08-29T19:46:36.189Z,99126.25
2022-08-29T19:51:36.231Z,99122.19
2022-08-29T19:54:06.003Z,99121.06
2022-08-29T19:56:34.028Z,99119.38
2022-08-29T19:59:01.481Z,99118.88
2022-08-29T20:01:29.329Z,99115.53
2022-08-29T20:03:56.537Z,99113.97
2022-08-29T20:06:24.294Z,99125.44
2022-08-29T20:08:51.501Z,99123.53
2022-08-29T20:11:23.797Z,99120.81
2022-08-29T20:13:52.991Z,99123.78
2022-08-29T20:16:28.647Z,99121.94
2022-08-29T20:18:57.348Z,99130.00
2022-08-29T20:21:26.475Z,99124.00
2022-08-29T20:23:58.229Z,99127.00
2022-08-29T20:26:28.942Z,99140.72
2022-08-29T20:28:56.290Z,99137.59
2022-08-29T20:31:23.473Z,99138.44
2022-08-29T20:33:51.272Z,99131.72
2022-08-29T20:36:39.858Z,99135.03
2022-08-29T20:39:09.599Z,99133.59
2022-08-29T20:41:38.764Z,99136.47
2022-08-29T20:44:07.983Z,99142.59
2022-08-29T20:46:41.356Z,99144.69
2022-08-29T20:49:14.189Z,99132.25
2022-08-29T20:51:45.903Z,99137.09
2022-08-29T20:54:15.314Z,99140.72
2022-08-29T20:56:43.244Z,99127.97
2022-08-29T20:59:10.640Z,99135.28
2022-08-29T21:01:38.301Z,99140.16
2022-08-29T21:04:25.017Z,99135.34
2022-08-29T21:06:56.847Z,99124.28
2022-08-29T21:09:26.812Z,99145.16
2022-08-29T21:11:57.923Z,99146.44
2022-08-29T21:14:28.131Z,99151.28
2022-08-29T21:16:57.038Z,99113.28
2022-08-29T21:19:26.460Z,99143.28
2022-08-29T21:21:53.986Z,99147.75
2022-08-29T21:24:21.140Z,99137.34
2022-08-29T21:26:48.494Z,99143.75
2022-08-29T21:29:16.129Z,99138.94
2022-08-29T21:31:43.432Z,99135.75
2022-08-29T21:34:12.836Z,99138.56
2022-08-29T21:36:41.724Z,99146.22
2022-08-29T21:39:12.154Z,99143.81
2022-08-29T21:41:45.235Z,99138.28
2022-08-29T21:44:14.236Z,99141.91
2022-08-29T21:46:43.942Z,99145.91
2022-08-29T21:49:17.078Z,99147.91
2022-08-29T21:51:45.962Z,99134.31
2022-08-29T21:54:15.371Z,99150.34
2022-08-29T21:56:44.935Z,99150.34
2022-08-29T21:59:21.513Z,99138.75
2022-08-29T22:01:52.669Z,99151.19
2022-08-29T22:04:28.404Z,99148.75
2022-08-29T22:06:58.241Z,99139.19
2022-08-29T22:09:27.343Z,99139.19
2022-08-29T22:11:54.827Z,99132.75
2022-08-29T22:14:42.083Z,99137.16
2022-08-29T22:17:09.330Z,99145.59
2022-08-29T22:19:47.363Z,99141.56
2022-08-29T22:22:19.778Z,99137.56
2022-08-29T22:24:47.577Z,99145.19
2022-08-29T22:27:16.015Z,99136.81
2022-08-29T22:29:46.689Z,99134.41
2022-08-29T22:32:14.111Z,99136.44
2022-08-29T22:34:41.476Z,99142.47
2022-08-29T22:37:08.897Z,99144.09
2022-08-29T22:39:36.084Z,99152.09
2022-08-29T22:42:03.466Z,99148.44
2022-08-29T22:47:19.466Z,99141.69
2022-08-29T22:49:48.355Z,99146.09
2022-08-29T22:52:16.798Z,99148.50
2022-08-29T22:54:44.126Z,99151.28
2022-08-29T22:57:15.311Z,99154.47
2022-08-29T22:59:43.813Z,99160.09
2022-08-29T23:02:12.369Z,99156.09
2022-08-29T23:04:40.176Z,99153.28
2022-08-29T23:07:07.966Z,99141.25
2022-08-29T23:09:35.898Z,99143.63
2022-08-29T23:12:05.865Z,99143.63
2022-08-29T23:14:36.318Z,99148.03
2022-08-29T23:17:06.417Z,99141.59
2022-08-29T23:19:34.420Z,99142.41
2022-08-29T23:22:02.750Z,99142.03
2022-08-29T23:24:31.318Z,99145.25
2022-08-29T23:26:59.440Z,99109.91
2022-08-29T23:29:27.183Z,99146.81
2022-08-29T23:31:54.920Z,99147.22
2022-08-29T23:34:22.781Z,99143.22
2022-08-29T23:36:52.031Z,99142.84
2022-08-29T23:39:20.110Z,99136.81
2022-08-29T23:41:49.166Z,99137.63
2022-08-29T23:44:17.614Z,99140.03
2022-08-29T23:46:45.118Z,99134.03
2022-08-29T23:49:12.579Z,99140.81
2022-08-29T23:51:39.923Z,99144.81
2022-08-29T23:54:08.298Z,99153.25
2022-08-29T23:56:35.485Z,99143.22
2022-08-29T23:59:04.045Z,99152.44
